sensor_id;sensor_type;location;lat;lon;timestamp;pressure;altitude;pressure_sealevel;temperature;humidity
64192;BME280;50497;50.720;-2.084;2024-03-23T00:55:40;102193.59;;;4.57;100.00
64192;BME280;50497;50.720;-2.084;2024-03-23T00:58:05;102191.84;;;4.46;100.00
64192;BME280;50497;50.720;-2.084;2024-03-23T01:00:31;102193.59;;;4.47;100.00
64192;BME280;50497;50.720;-2.084;2024-03-23T01:02:56;102192.72;;;4.37;100.00
64192;BME280;50497;50.720;-2.084;2024-03-23T01:05:22;102183.88;;;4.32;100.00
64192;BME280;50497;50.720;-2.084;2024-03-23T01:07:47;102200.66;;;4.37;100.00
64192;BME280;50497;50.720;-2.084;2024-03-23T01:10:12;102193.56;;;4.28;100.00
64192;BME280;50497;50.720;-2.084;2024-03-23T01:12:38;102194.44;;;4.22;100.00
64192;BME280;50497;50.720;-2.084;2024-03-23T01:15:03;102193.56;;;4.22;100.00
64192;BME280;50497;50.720;-2.084;2024-03-23T01:17:29;102200.59;;;4.20;100.00
64192;BME280;50497;50.720;-2.084;2024-03-23T01:19:54;102187.38;;;4.15;100.00
64192;BME280;50497;50.720;-2.084;2024-03-23T01:22:23;102168.81;;;4.09;100.00
64192;BME280;50497;50.720;-2.084;2024-03-23T01:24:48;102174.06;;;4.04;100.00
64192;BME280;50497;50.720;-2.084;2024-03-23T01:27:14;102187.34;;;4.07;100.00
64192;BME280;50497;50.720;-2.084;2024-03-23T01:29:39;102158.16;;;3.89;100.00
64192;BME280;50497;50.720;-2.084;2024-03-23T01:32:05;102171.41;;;3.95;100.00
64192;BME280;50497;50.720;-2.084;2024-03-23T01:34:31;102182.91;;;4.02;100.00
64192;BME280;50497;50.720;-2.084;2024-03-23T01:36:56;102190.84;;;4.05;100.00
64192;BME280;50497;50.720;-2.084;2024-03-23T01:39:22;102179.38;;;4.03;100.00
64192;BME280;50497;50.720;-2.084;2024-03-23T01:41:47;102192.66;;;4.12;100.00
64192;BME280;50497;50.720;-2.084;2024-03-23T01:44:12;102184.69;;;4.09;100.00
64192;BME280;50497;50.720;-2.084;2024-03-23T01:46:38;102199.72;;;4.16;100.00
64192;BME280;50497;50.720;-2.084;2024-03-23T01:49:07;102197.97;;;4.15;100.00
64192;BME280;50497;50.720;-2.084;2024-03-23T01:51:33;102188.22;;;4.11;100.00
64192;BME280;50497;50.720;-2.084;2024-03-23T01:54:00;102189.09;;;4.13;100.00
64192;BME280;50497;50.720;-2.084;2024-03-23T01:56:32;102194.41;;;4.13;100.00
64192;BME280;50497;50.720;-2.084;2024-03-23T01:59:09;102197.94;;;4.12;100.00
64192;BME280;50497;50.720;-2.084;2024-03-23T02:01:35;102189.09;;;4.12;100.00
64192;BME280;50497;50.720;-2.084;2024-03-23T02:04:04;102173.22;;;4.07;100.00
64192;BME280;50497;50.720;-2.084;2024-03-23T02:06:29;102172.31;;;4.08;100.00
64192;BME280;50497;50.720;-2.084;2024-03-23T02:08:55;102180.28;;;4.13;100.00
64192;BME280;50497;50.720;-2.084;2024-03-23T02:11:20;102182.03;;;4.18;100.00
64192;BME280;50497;50.720;-2.084;2024-03-23T02:13:46;102163.50;;;4.12;100.00
64192;BME280;50497;50.720;-2.084;2024-03-23T02:16:11;102171.44;;;4.18;100.00
64192;BME280;50497;50.720;-2.084;2024-03-23T02:18:38;102170.56;;;4.18;100.00
64192;BME280;50497;50.720;-2.084;2024-03-23T02:21:04;102178.53;;;4.19;100.00
64192;BME280;50497;50.720;-2.084;2024-03-23T02:23:30;102173.22;;;4.13;100.00
64192;BME280;50497;50.720;-2.084;2024-03-23T02:25:55;102176.78;;;4.15;100.00
64192;BME280;50497;50.720;-2.084;2024-03-23T02:28:20;102175.84;;;4.13;100.00
64192;BME280;50497;50.720;-2.084;2024-03-23T02:30:47;102179.41;;;4.14;100.00
64192;BME280;50497;50.720;-2.084;2024-03-23T02:33:12;102168.81;;;4.11;100.00
64192;BME280;50497;50.720;-2.084;2024-03-23T02:35:38;102172.31;;;4.06;100.00
64192;BME280;50497;50.720;-2.084;2024-03-23T02:38:03;102168.81;;;4.09;100.00
64192;BME280;50497;50.720;-2.084;2024-03-23T02:40:29;102174.97;;;4.11;100.00
64192;BME280;50497;50.720;-2.084;2024-03-23T02:42:54;102182.03;;;4.18;100.00
64192;BME280;50497;50.720;-2.084;2024-03-23T02:45:20;102154.66;;;4.15;100.00
64192;BME280;50497;50.720;-2.084;2024-03-23T02:47:45;102149.38;;;4.12;100.00
64192;BME280;50497;50.720;-2.084;2024-03-23T02:50:11;102162.63;;;4.19;100.00
64192;BME280;50497;50.720;-2.084;2024-03-23T02:52:37;102156.47;;;4.17;100.00
64192;BME280;50497;50.720;-2.084;2024-03-23T02:55:03;102174.09;;;4.21;100.00
64192;BME280;50497;50.720;-2.084;2024-03-23T02:57:28;102173.25;;;4.29;100.00
64192;BME280;50497;50.720;-2.084;2024-03-23T02:59:54;102164.41;;;4.20;100.00
64192;BME280;50497;50.720;-2.084;2024-03-23T03:02:20;102182.09;;;4.31;100.00
64192;BME280;50497;50.720;-2.084;2024-03-23T03:04:45;102175.03;;;4.33;100.00
64192;BME280;50497;50.720;-2.084;2024-03-23T03:07:11;102176.78;;;4.24;100.00
64192;BME280;50497;50.720;-2.084;2024-03-23T03:09:36;102171.47;;;4.21;100.00
64192;BME280;50497;50.720;-2.084;2024-03-23T03:12:07;102160.88;;;4.15;100.00
64192;BME280;50497;50.720;-2.084;2024-03-23T03:14:33;102162.63;;;4.21;100.00
64192;BME280;50497;50.720;-2.084;2024-03-23T03:16:58;102155.56;;;4.12;100.00
64192;BME280;50497;50.720;-2.084;2024-03-23T03:19:23;102162.63;;;4.19;100.00
64192;BME280;50497;50.720;-2.084;2024-03-23T03:21:49;102156.47;;;4.19;100.00
64192;BME280;50497;50.720;-2.084;2024-03-23T03:24:14;102143.19;;;4.08;100.00
64192;BME280;50497;50.720;-2.084;2024-03-23T03:26:40;102140.53;;;4.11;100.00
64192;BME280;50497;50.720;-2.084;2024-03-23T03:29:05;102136.16;;;4.10;100.00
64192;BME280;50497;50.720;-2.084;2024-03-23T03:31:30;102129.97;;;4.16;100.00
64192;BME280;50497;50.720;-2.084;2024-03-23T03:33:56;102135.28;;;4.19;100.00
64192;BME280;50497;50.720;-2.084;2024-03-23T03:36:21;102137.94;;;4.22;100.00
64192;BME280;50497;50.720;-2.084;2024-03-23T03:38:47;102128.19;;;4.21;100.00
64192;BME280;50497;50.720;-2.084;2024-03-23T03:41:12;102121.13;;;4.21;100.00
64192;BME280;50497;50.720;-2.084;2024-03-23T03:43:37;102120.28;;;4.27;100.00
64192;BME280;50497;50.720;-2.084;2024-03-23T03:46:03;102123.78;;;4.26;100.00
64192;BME280;50497;50.720;-2.084;2024-03-23T03:48:29;102119.38;;;4.28;100.00
64192;BME280;50497;50.720;-2.084;2024-03-23T03:50:54;102122.94;;;4.30;100.00
64192;BME280;50497;50.720;-2.084;2024-03-23T03:53:20;102114.97;;;4.29;100.00
64192;BME280;50497;50.720;-2.084;2024-03-23T03:55:46;102121.16;;;4.32;100.00
64192;BME280;50497;50.720;-2.084;2024-03-23T03:58:11;102124.69;;;4.40;100.00
64192;BME280;50497;50.720;-2.084;2024-03-23T04:00:37;102101.72;;;4.27;100.00
64192;BME280;50497;50.720;-2.084;2024-03-23T04:03:02;102122.03;;;4.37;100.00
64192;BME280;50497;50.720;-2.084;2024-03-23T04:05:28;102112.31;;;4.38;100.00
64192;BME280;50497;50.720;-2.084;2024-03-23T04:07:54;102118.50;;;4.43;100.00
64192;BME280;50497;50.720;-2.084;2024-03-23T04:10:20;102081.38;;;4.21;100.00
64192;BME280;50497;50.720;-2.084;2024-03-23T04:12:46;102091.13;;;4.27;100.00
64192;BME280;50497;50.720;-2.084;2024-03-23T04:15:12;102111.44;;;4.36;100.00
64192;BME280;50497;50.720;-2.084;2024-03-23T04:17:37;102111.44;;;4.34;100.00
64192;BME280;50497;50.720;-2.084;2024-03-23T04:20:03;102104.34;;;4.35;100.00
64192;BME280;50497;50.720;-2.084;2024-03-23T04:22:33;102100.84;;;4.23;100.00
64192;BME280;50497;50.720;-2.084;2024-03-23T04:24:58;102106.13;;;4.36;100.00
64192;BME280;50497;50.720;-2.084;2024-03-23T04:27:24;102085.81;;;4.33;100.00
64192;BME280;50497;50.720;-2.084;2024-03-23T04:29:53;102090.22;;;4.33;100.00
64192;BME280;50497;50.720;-2.084;2024-03-23T04:32:18;102085.81;;;4.33;100.00
64192;BME280;50497;50.720;-2.084;2024-03-23T04:34:44;102080.50;;;4.33;100.00
64192;BME280;50497;50.720;-2.084;2024-03-23T04:37:10;102087.59;;;4.39;100.00
64192;BME280;50497;50.720;-2.084;2024-03-23T04:39:36;102082.28;;;4.31;100.00
64192;BME280;50497;50.720;-2.084;2024-03-23T04:42:02;102072.59;;;4.32;100.00
64192;BME280;50497;50.720;-2.084;2024-03-23T04:44:28;102061.09;;;4.25;100.00
64192;BME280;50497;50.720;-2.084;2024-03-23T04:46:53;102071.69;;;4.17;100.00
64192;BME280;50497;50.720;-2.084;2024-03-23T04:49:19;102051.38;;;4.13;100.00
64192;BME280;50497;50.720;-2.084;2024-03-23T04:51:44;102058.44;;;4.14;100.00
64192;BME280;50497;50.720;-2.084;2024-03-23T04:54:14;102061.06;;;4.06;100.00
64192;BME280;50497;50.720;-2.084;2024-03-23T04:56:40;102055.81;;;4.03;100.00
64192;BME280;50497;50.720;-2.084;2024-03-23T04:59:05;102043.44;;;4.05;100.00
64192;BME280;50497;50.720;-2.084;2024-03-23T05:01:33;102051.34;;;3.95;100.00
64192;BME280;50497;50.720;-2.084;2024-03-23T05:03:59;102043.41;;;3.93;100.00
64192;BME280;50497;50.720;-2.084;2024-03-23T05:06:25;102052.25;;;3.95;100.00
64192;BME280;50497;50.720;-2.084;2024-03-23T05:08:51;102040.75;;;3.92;100.00
64192;BME280;50497;50.720;-2.084;2024-03-23T05:11:17;102044.31;;;3.89;100.00
64192;BME280;50497;50.720;-2.084;2024-03-23T05:13:42;102042.50;;;3.74;100.00
64192;BME280;50497;50.720;-2.084;2024-03-23T05:16:08;102031.03;;;3.72;100.00
64192;BME280;50497;50.720;-2.084;2024-03-23T05:18:34;102030.13;;;3.56;100.00
64192;BME280;50497;50.720;-2.084;2024-03-23T05:20:59;102030.13;;;3.55;100.00
64192;BME280;50497;50.720;-2.084;2024-03-23T05:23:26;102021.25;;;3.36;100.00
64192;BME280;50497;50.720;-2.084;2024-03-23T05:25:51;102017.69;;;3.32;100.00
64192;BME280;50497;50.720;-2.084;2024-03-23T05:28:18;102017.69;;;3.26;100.00
64192;BME280;50497;50.720;-2.084;2024-03-23T05:30:43;102027.34;;;3.16;100.00
64192;BME280;50497;50.720;-2.084;2024-03-23T05:33:09;102014.09;;;3.08;100.00
64192;BME280;50497;50.720;-2.084;2024-03-23T05:35:34;102022.09;;;3.21;100.00
64192;BME280;50497;50.720;-2.084;2024-03-23T05:38:00;102029.16;;;3.31;100.00
64192;BME280;50497;50.720;-2.084;2024-03-23T05:40:26;102024.75;;;3.30;100.00
64192;BME280;50497;50.720;-2.084;2024-03-23T05:42:52;102035.34;;;3.36;100.00
64192;BME280;50497;50.720;-2.084;2024-03-23T05:45:21;102035.34;;;3.33;100.00
64192;BME280;50497;50.720;-2.084;2024-03-23T05:47:50;102036.22;;;3.35;100.00
64192;BME280;50497;50.720;-2.084;2024-03-23T05:50:15;102023.00;;;3.35;100.00
64192;BME280;50497;50.720;-2.084;2024-03-23T05:52:41;102042.44;;;3.45;100.00
64192;BME280;50497;50.720;-2.084;2024-03-23T05:55:09;102042.44;;;3.45;100.00
64192;BME280;50497;50.720;-2.084;2024-03-23T05:57:34;102040.66;;;3.41;100.00
64192;BME280;50497;50.720;-2.084;2024-03-23T05:59:59;102033.56;;;3.32;100.00
64192;BME280;50497;50.720;-2.084;2024-03-23T06:02:25;102038.03;;;3.48;100.00
64192;BME280;50497;50.720;-2.084;2024-03-23T06:04:50;102045.09;;;3.53;100.00
64192;BME280;50497;50.720;-2.084;2024-03-23T06:07:15;102034.50;;;3.46;100.00
64192;BME280;50497;50.720;-2.084;2024-03-23T06:09:41;102038.94;;;3.57;100.00
64192;BME280;50497;50.720;-2.084;2024-03-23T06:12:07;102040.69;;;3.51;100.00
64192;BME280;50497;50.720;-2.084;2024-03-23T06:14:33;102038.94;;;3.47;100.00
64192;BME280;50497;50.720;-2.084;2024-03-23T06:16:59;102043.34;;;3.53;100.00
64192;BME280;50497;50.720;-2.084;2024-03-23T06:19:25;102053.06;;;3.57;100.00
64192;BME280;50497;50.720;-2.084;2024-03-23T06:21:54;102065.41;;;3.61;100.00
64192;BME280;50497;50.720;-2.084;2024-03-23T06:24:23;102061.88;;;3.59;100.00
64192;BME280;50497;50.720;-2.084;2024-03-23T06:26:49;102060.13;;;3.64;100.00
64192;BME280;50497;50.720;-2.084;2024-03-23T06:29:15;102056.63;;;3.76;100.00
64192;BME280;50497;50.720;-2.084;2024-03-23T06:31:40;102062.81;;;3.78;100.00
64192;BME280;50497;50.720;-2.084;2024-03-23T06:34:06;102057.50;;;3.77;100.00
64192;BME280;50497;50.720;-2.084;2024-03-23T06:36:31;102061.06;;;3.82;100.00
64192;BME280;50497;50.720;-2.084;2024-03-23T06:38:57;102069.88;;;3.81;100.00
64192;BME280;50497;50.720;-2.084;2024-03-23T06:41:22;102083.13;;;3.95;100.00
64192;BME280;50497;50.720;-2.084;2024-03-23T06:43:48;102060.19;;;3.97;100.00
64192;BME280;50497;50.720;-2.084;2024-03-23T06:46:13;102066.38;;;4.02;100.00
64192;BME280;50497;50.720;-2.084;2024-03-23T06:48:39;102069.03;;;4.10;100.00
64192;BME280;50497;50.720;-2.084;2024-03-23T06:51:04;102070.81;;;4.15;100.00
64192;BME280;50497;50.720;-2.084;2024-03-23T06:53:29;102065.50;;;4.15;100.00
64192;BME280;50497;50.720;-2.084;2024-03-23T06:55:55;102064.63;;;4.19;100.00
64192;BME280;50497;50.720;-2.084;2024-03-23T06:58:22;102062.84;;;4.21;100.00
64192;BME280;50497;50.720;-2.084;2024-03-23T07:00:48;102064.63;;;4.21;100.00
64192;BME280;50497;50.720;-2.084;2024-03-23T07:03:14;102054.00;;;4.33;100.00
64192;BME280;50497;50.720;-2.084;2024-03-23T07:05:39;102047.84;;;4.42;100.00
64192;BME280;50497;50.720;-2.084;2024-03-23T07:08:05;102054.03;;;4.44;100.00
64192;BME280;50497;50.720;-2.084;2024-03-23T07:10:30;102044.28;;;4.44;100.00
64192;BME280;50497;50.720;-2.084;2024-03-23T07:12:57;102057.50;;;4.61;100.00
64192;BME280;50497;50.720;-2.084;2024-03-23T07:15:22;102040.75;;;4.62;100.00
64192;BME280;50497;50.720;-2.084;2024-03-23T07:17:48;102038.09;;;4.69;100.00
64192;BME280;50497;50.720;-2.084;2024-03-23T07:20:13;102042.47;;;4.88;100.00
64192;BME280;50497;50.720;-2.084;2024-03-23T07:22:39;102036.25;;;4.83;100.00
64192;BME280;50497;50.720;-2.084;2024-03-23T07:25:05;102022.09;;;4.93;100.00
64192;BME280;50497;50.720;-2.084;2024-03-23T07:27:30;102032.66;;;5.06;100.00
64192;BME280;50497;50.720;-2.084;2024-03-23T07:29:56;102021.19;;;5.04;100.00
64192;BME280;50497;50.720;-2.084;2024-03-23T07:32:21;102027.28;;;5.26;100.00
64192;BME280;50497;50.720;-2.084;2024-03-23T07:34:46;102027.25;;;5.30;100.00
64192;BME280;50497;50.720;-2.084;2024-03-23T07:37:12;102021.00;;;5.42;100.00
64192;BME280;50497;50.720;-2.084;2024-03-23T07:39:39;102022.75;;;5.48;100.00
64192;BME280;50497;50.720;-2.084;2024-03-23T07:42:05;101995.28;;;5.52;100.00
64192;BME280;50497;50.720;-2.084;2024-03-23T07:44:30;102007.56;;;5.68;100.00
64192;BME280;50497;50.720;-2.084;2024-03-23T07:46:56;102007.56;;;5.70;100.00
64192;BME280;50497;50.720;-2.084;2024-03-23T07:49:21;102002.16;;;5.81;100.00
64192;BME280;50497;50.720;-2.084;2024-03-23T07:51:47;101979.09;;;5.86;100.00
64192;BME280;50497;50.720;-2.084;2024-03-23T07:54:12;101988.81;;;5.90;100.00
64192;BME280;50497;50.720;-2.084;2024-03-23T07:56:38;101983.41;;;6.07;100.00
64192;BME280;50497;50.720;-2.084;2024-03-23T07:59:03;101973.63;;;6.09;100.00
64192;BME280;50497;50.720;-2.084;2024-03-23T08:01:29;101973.59;;;6.15;100.00
64192;BME280;50497;50.720;-2.084;2024-03-23T08:03:55;101968.22;;;6.20;100.00
64192;BME280;50497;50.720;-2.084;2024-03-23T08:06:20;101956.75;;;6.18;100.00
64192;BME280;50497;50.720;-2.084;2024-03-23T08:08:50;101952.13;;;6.34;100.00
64192;BME280;50497;50.720;-2.084;2024-03-23T08:11:16;101960.88;;;6.45;100.00
64192;BME280;50497;50.720;-2.084;2024-03-23T08:13:42;101943.03;;;6.58;100.00
64192;BME280;50497;50.720;-2.084;2024-03-23T08:16:10;101939.38;;;6.66;100.00
64192;BME280;50497;50.720;-2.084;2024-03-23T08:18:35;101934.84;;;6.73;100.00
64192;BME280;50497;50.720;-2.084;2024-03-23T08:21:02;101931.09;;;6.90;100.00
64192;BME280;50497;50.720;-2.084;2024-03-23T08:23:29;101911.44;;;7.01;100.00
64192;BME280;50497;50.720;-2.084;2024-03-23T08:25:57;101906.59;;;7.30;100.00
64192;BME280;50497;50.720;-2.084;2024-03-23T08:28:23;101913.31;;;7.55;100.00
64192;BME280;50497;50.720;-2.084;2024-03-23T08:30:48;101912.31;;;7.61;100.00
64192;BME280;50497;50.720;-2.084;2024-03-23T08:33:15;101894.16;;;7.85;100.00
64192;BME280;50497;50.720;-2.084;2024-03-23T08:35:41;101889.66;;;7.88;100.00
64192;BME280;50497;50.720;-2.084;2024-03-23T08:38:06;101865.41;;;8.04;100.00
64192;BME280;50497;50.720;-2.084;2024-03-23T08:40:32;101855.69;;;9.26;100.00
64192;BME280;50497;50.720;-2.084;2024-03-23T08:42:57;101846.50;;;9.74;100.00
64192;BME280;50497;50.720;-2.084;2024-03-23T08:45:24;101817.56;;;10.23;100.00
64192;BME280;50497;50.720;-2.084;2024-03-23T08:47:50;101821.16;;;10.53;100.00
64192;BME280;50497;50.720;-2.084;2024-03-23T08:50:15;101788.72;;;10.92;100.00
64192;BME280;50497;50.720;-2.084;2024-03-23T08:52:41;101786.59;;;12.31;100.00
64192;BME280;50497;50.720;-2.084;2024-03-23T08:55:06;101818.56;;;11.61;100.00
64192;BME280;50497;50.720;-2.084;2024-03-23T08:57:32;101848.69;;;11.43;100.00
64192;BME280;50497;50.720;-2.084;2024-03-23T08:59:57;101854.09;;;11.41;100.00
64192;BME280;50497;50.720;-2.084;2024-03-23T09:02:23;101861.91;;;11.74;100.00
64192;BME280;50497;50.720;-2.084;2024-03-23T09:04:48;101875.88;;;11.84;100.00
64192;BME280;50497;50.720;-2.084;2024-03-23T09:07:14;101880.94;;;11.67;100.00
64192;BME280;50497;50.720;-2.084;2024-03-23T09:09:39;101859.91;;;13.02;100.00
64192;BME280;50497;50.720;-2.084;2024-03-23T09:12:05;101904.53;;;12.35;100.00
64192;BME280;50497;50.720;-2.084;2024-03-23T09:14:32;101933.78;;;12.16;100.00
64192;BME280;50497;50.720;-2.084;2024-03-23T09:16:57;101937.13;;;11.70;100.00
64192;BME280;50497;50.720;-2.084;2024-03-23T09:19:23;101912.13;;;11.97;100.00
64192;BME280;50497;50.720;-2.084;2024-03-23T09:21:49;101904.53;;;12.35;100.00
64192;BME280;50497;50.720;-2.084;2024-03-23T09:24:14;101889.16;;;13.34;100.00
64192;BME280;50497;50.720;-2.084;2024-03-23T09:26:40;101893.06;;;13.25;100.00
64192;BME280;50497;50.720;-2.084;2024-03-23T09:29:05;101900.09;;;12.58;100.00
64192;BME280;50497;50.720;-2.084;2024-03-23T09:31:30;101941.91;;;12.15;100.00
64192;BME280;50497;50.720;-2.084;2024-03-23T09:33:59;101936.78;;;12.34;100.00
64192;BME280;50497;50.720;-2.084;2024-03-23T09:36:25;101943.44;;;12.96;100.00
64192;BME280;50497;50.720;-2.084;2024-03-23T09:38:50;101905.66;;;12.53;100.00
64192;BME280;50497;50.720;-2.084;2024-03-23T09:41:16;101934.78;;;12.14;100.00
64192;BME280;50497;50.720;-2.084;2024-03-23T09:43:41;101778.75;;;13.38;100.00
64192;BME280;50497;50.720;-2.084;2024-03-23T09:46:07;101770.19;;;13.06;100.00
64192;BME280;50497;50.720;-2.084;2024-03-23T09:48:33;101677.50;;;12.96;100.00
64192;BME280;50497;50.720;-2.084;2024-03-23T09:50:59;101679.88;;;11.67;100.00
64192;BME280;50497;50.720;-2.084;2024-03-23T09:53:24;101919.72;;;10.98;100.00
64192;BME280;50497;50.720;-2.084;2024-03-23T09:55:50;101928.16;;;12.24;100.00
64192;BME280;50497;50.720;-2.084;2024-03-23T09:58:16;101875.69;;;13.56;100.00
64192;BME280;50497;50.720;-2.084;2024-03-23T10:00:43;101816.66;;;13.32;100.00
64192;BME280;50497;50.720;-2.084;2024-03-23T10:03:08;101699.53;;;13.04;100.00
64192;BME280;50497;50.720;-2.084;2024-03-23T10:05:36;101651.78;;;12.90;100.00
64192;BME280;50497;50.720;-2.084;2024-03-23T10:08:22;101575.69;;;12.69;100.00
64192;BME280;50497;50.720;-2.084;2024-03-23T10:10:51;101528.84;;;13.37;100.00
64192;BME280;50497;50.720;-2.084;2024-03-23T10:13:28;101468.16;;;13.31;100.00
64192;BME280;50497;50.720;-2.084;2024-03-23T10:15:56;101377.69;;;12.14;100.00
64192;BME280;50497;50.720;-2.084;2024-03-23T10:18:22;101393.41;;;12.43;100.00
64192;BME280;50497;50.720;-2.084;2024-03-23T10:21:11;101395.44;;;12.37;100.00
64192;BME280;50497;50.720;-2.084;2024-03-23T10:23:40;101435.53;;;13.20;100.00
64192;BME280;50497;50.720;-2.084;2024-03-23T10:26:22;101445.88;;;12.50;100.00
64192;BME280;50497;50.720;-2.084;2024-03-23T10:31:20;101488.16;;;12.65;100.00
64192;BME280;50497;50.720;-2.084;2024-03-23T10:33:47;101489.03;;;12.02;100.00
64192;BME280;50497;50.720;-2.084;2024-03-23T10:36:13;101537.59;;;12.39;100.00
64192;BME280;50497;50.720;-2.084;2024-03-23T10:38:40;101596.78;;;12.79;100.00
64192;BME280;50497;50.720;-2.084;2024-03-23T10:41:08;101640.84;;;13.36;100.00
64192;BME280;50497;50.720;-2.084;2024-03-23T10:43:35;101673.00;;;12.97;100.00
64192;BME280;50497;50.720;-2.084;2024-03-23T10:46:01;101623.03;;;12.50;100.00
64192;BME280;50497;50.720;-2.084;2024-03-23T10:48:26;101688.44;;;13.34;100.00
64192;BME280;50497;50.720;-2.084;2024-03-23T10:50:53;101528.63;;;11.50;100.00
64192;BME280;50497;50.720;-2.084;2024-03-23T10:53:18;101707.59;;;11.15;100.00
64192;BME280;50497;50.720;-2.084;2024-03-23T10:55:44;101931.16;;;11.61;100.00
64192;BME280;50497;50.720;-2.084;2024-03-23T10:58:10;101950.56;;;12.23;100.00
64192;BME280;50497;50.720;-2.084;2024-03-23T11:00:38;101983.16;;;13.11;100.00
64192;BME280;50497;50.720;-2.084;2024-03-23T11:03:29;101925.47;;;13.44;100.00
64192;BME280;50497;50.720;-2.084;2024-03-23T11:05:52;101850.66;;;13.96;100.00
64192;BME280;50497;50.720;-2.084;2024-03-23T11:08:33;101691.63;;;13.63;100.00
64192;BME280;50497;50.720;-2.084;2024-03-23T11:11:18;101596.09;;;13.75;100.00
64192;BME280;50497;50.720;-2.084;2024-03-23T11:13:44;101521.66;;;13.37;100.00
64192;BME280;50497;50.720;-2.084;2024-03-23T11:16:22;101540.50;;;14.12;100.00
64192;BME280;50497;50.720;-2.084;2024-03-23T11:18:49;101412.09;;;13.23;100.00
64192;BME280;50497;50.720;-2.084;2024-03-23T11:21:52;101445.34;;;13.21;100.00
64192;BME280;50497;50.720;-2.084;2024-03-23T11:24:21;101367.06;;;13.09;100.00
64192;BME280;50497;50.720;-2.084;2024-03-23T11:26:47;101346.69;;;13.78;100.00
64192;BME280;50497;50.720;-2.084;2024-03-23T11:29:17;101370.97;;;15.12;100.00
64192;BME280;50497;50.720;-2.084;2024-03-23T11:31:51;101196.84;;;15.40;100.00
64192;BME280;50497;50.720;-2.084;2024-03-23T11:34:18;101190.78;;;15.81;100.00
64192;BME280;50497;50.720;-2.084;2024-03-23T11:36:44;101068.00;;;15.45;100.00
64192;BME280;50497;50.720;-2.084;2024-03-23T11:39:14;100985.38;;;13.63;100.00
64192;BME280;50497;50.720;-2.084;2024-03-23T11:41:52;101148.97;;;11.90;100.00
64192;BME280;50497;50.720;-2.084;2024-03-23T11:44:22;101371.03;;;10.45;100.00
64192;BME280;50497;50.720;-2.084;2024-03-23T11:46:48;101560.59;;;9.72;100.00
64192;BME280;50497;50.720;-2.084;2024-03-23T11:49:24;101889.81;;;10.21;100.00
64192;BME280;50497;50.720;-2.084;2024-03-23T11:51:51;101964.94;;;11.09;100.00
64192;BME280;50497;50.720;-2.084;2024-03-23T11:54:23;102247.63;;;10.86;100.00
64192;BME280;50497;50.720;-2.084;2024-03-23T11:56:59;102367.69;;;10.66;100.00
64192;BME280;50497;50.720;-2.084;2024-03-23T11:59:38;102486.41;;;10.63;100.00
64192;BME280;50497;50.720;-2.084;2024-03-23T12:02:09;102473.81;;;10.68;100.00
64192;BME280;50497;50.720;-2.084;2024-03-23T12:04:36;102357.53;;;11.19;100.00
64192;BME280;50497;50.720;-2.084;2024-03-23T12:07:22;102348.31;;;11.67;100.00
64192;BME280;50497;50.720;-2.084;2024-03-23T12:10:08;102292.22;;;13.10;100.00
64192;BME280;50497;50.720;-2.084;2024-03-23T12:12:33;102323.53;;;13.91;100.00
64192;BME280;50497;50.720;-2.084;2024-03-23T12:15:07;102401.88;;;14.07;100.00
64192;BME280;50497;50.720;-2.084;2024-03-23T12:17:34;102381.47;;;14.74;100.00
64192;BME280;50497;50.720;-2.084;2024-03-23T12:20:03;102356.47;;;15.81;100.00
64192;BME280;50497;50.720;-2.084;2024-03-23T12:22:28;102369.44;;;15.28;100.00
64192;BME280;50497;50.720;-2.084;2024-03-23T12:24:57;102344.31;;;15.48;100.00
64192;BME280;50497;50.720;-2.084;2024-03-23T12:27:23;102352.16;;;15.34;100.00
64192;BME280;50497;50.720;-2.084;2024-03-23T12:29:48;102328.53;;;16.02;100.00
64192;BME280;50497;50.720;-2.084;2024-03-23T12:32:14;102212.47;;;16.58;100.00
64192;BME280;50497;50.720;-2.084;2024-03-23T12:34:41;101931.13;;;14.64;100.00
64192;BME280;50497;50.720;-2.084;2024-03-23T12:37:07;101852.78;;;15.07;100.00
64192;BME280;50497;50.720;-2.084;2024-03-23T12:39:32;101620.84;;;15.10;100.00
64192;BME280;50497;50.720;-2.084;2024-03-23T12:42:00;101407.78;;;14.11;100.00
64192;BME280;50497;50.720;-2.084;2024-03-23T12:44:28;101340.31;;;13.44;100.00
64192;BME280;50497;50.720;-2.084;2024-03-23T12:46:54;101413.03;;;12.04;100.00
64192;BME280;50497;50.720;-2.084;2024-03-23T12:49:19;101691.63;;;11.39;100.00
64192;BME280;50497;50.720;-2.084;2024-03-23T12:51:54;101892.09;;;10.68;100.00
64192;BME280;50497;50.720;-2.084;2024-03-23T12:54:20;102025.81;;;10.38;100.00
64192;BME280;50497;50.720;-2.084;2024-03-23T12:56:46;102176.22;;;10.51;100.00
64192;BME280;50497;50.720;-2.084;2024-03-23T12:59:11;102269.47;;;10.27;100.00
64192;BME280;50497;50.720;-2.084;2024-03-23T13:01:38;102353.44;;;10.20;100.00
64192;BME280;50497;50.720;-2.084;2024-03-23T13:04:04;102402.69;;;10.08;100.00
64192;BME280;50497;50.720;-2.084;2024-03-23T13:06:29;102450.72;;;9.63;100.00
64192;BME280;50497;50.720;-2.084;2024-03-23T13:08:59;102500.53;;;8.17;100.00
64192;BME280;50497;50.720;-2.084;2024-03-23T13:11:25;102422.94;;;7.50;100.00
64192;BME280;50497;50.720;-2.084;2024-03-23T13:13:51;102233.94;;;7.42;100.00
64192;BME280;50497;50.720;-2.084;2024-03-23T13:16:16;102167.41;;;7.39;100.00
64192;BME280;50497;50.720;-2.084;2024-03-23T13:18:41;102128.13;;;7.56;100.00
64192;BME280;50497;50.720;-2.084;2024-03-23T13:21:07;102024.88;;;7.75;100.00
64192;BME280;50497;50.720;-2.084;2024-03-23T13:23:32;101998.75;;;7.98;100.00
64192;BME280;50497;50.720;-2.084;2024-03-23T13:26:01;101959.53;;;8.06;100.00
64192;BME280;50497;50.720;-2.084;2024-03-23T13:28:26;101930.13;;;8.10;100.00
64192;BME280;50497;50.720;-2.084;2024-03-23T13:30:53;101875.97;;;8.55;100.00